Columbia Falls, MT (59912)

8:26 PM MDT on August 29, 2016 (GMT -0600)
| | Change Station
Active Advisory: Air Quality Alert

Elev -9999 ft 0.00 °N, 0.00 °E | Updated

Clear
Clear
62 °F
Feels Like 62 °F
N
13
Wind Variable Wind from NE
Gusts 18 mph

Today
High -- | Low -- °F
--% Chance of Precip.
Yesterday
High -- | Low -- °F
Precip. -- in
Pressure 30.01 in
Visibility 9.0 miles
Clouds Clear
Dew Point 49 °F
Humidity 62%
Rainfall --
Snow Depth Not available.
6:50 AM 8:23 PM
Waning Crescent, 6% visible
METAR KCTB 300156Z AUTO 10013KT 9SM CLR 26/04 A3008 RMK AO2 SLP163 T02560044
Pressure 30.01 in
Visibility 9.0 miles
Clouds Clear
Dew Point 49 °F
Humidity 62%
Rainfall --
Snow Depth Not available.
6:50 AM 8:23 PM
Waning Crescent, 6% visible
METAR KCTB 300156Z AUTO 10013KT 9SM CLR 26/04 A3008 RMK AO2 SLP163 T02560044

10-Day Weather Forecast

Almanac

Astronomy

Aug. 29, 2016 Rise Set
Actual Time
Civil Twilight
Nautical Twilight
Astronomical Twilight
Moon
Length of Visible Light
Length of Day
Tomorrow will be .
, % of the Moon is Illuminated

Today's Extremes

State Highs State Lows

Community

WunderPhotos

Upload Photos

1,935,720 photos uploaded!

WunderBlog® & News

Nearby

Air Quality

  Air Quality AQ Index Pollutant
Not available.

Snow Depth

Station Depth Elevation

Earthquake Activity

City Distance Mag. Time & Date
Minimum magnitude displayed is 2.5.

Coastal Water Temperatures

Place Temperature

Stations

Nearby Weather Stations

Station Location Temp. Windchill Dew Point Humidity Wind Precip. Elev Updated Type
                   

Watches & Warnings

Air Quality Alert
Issued: 2:00 PM MDT Aug. 29, 2016 – National Weather Service

The Montana department of environmental quality has issued an air
quality alert for Sanders County in effect until further notice due
to nearby wildfire activity. Significant air quality impacts are
expected in the southern portion of Gallatin County near Yellowstone
National Park and the community of Thompson Falls in Sanders County.
This alert will be updated again at 900am on August 30... 2016.

An air quality alert means that particulates have been trending
upwards and that an exceedence of the 24 hour National ambient air
quality Standard (naaqs) has occurred or may occur in the near
future.

Particulate levels in Thompson Falls are very unhealthy.

When air quality is very unhealthy... state and local health
officials recommend that people with respiratory or heart disease...
the elderly... and children should avoid any outdoor activity... everyone
else should avoid prolonged exertion.

For more information... visit the Montana department of environmental
quality at www.Todaysair.Mt.Gov.